createdAt,value
2023-03-17T00:00:20.029Z,98395.88
2023-03-17T00:02:48.712Z,98396.34
2023-03-17T00:05:19.375Z,98389.50
2023-03-17T00:07:47.637Z,98386.38
2023-03-17T00:10:19.078Z,98393.00
2023-03-17T00:12:46.818Z,98395.03
2023-03-17T00:15:15.236Z,98386.72
2023-03-17T00:17:42.662Z,98388.53
2023-03-17T00:20:13.367Z,98390.88
2023-03-17T00:22:41.210Z,98386.28
2023-03-17T00:25:28.433Z,98389.09
2023-03-17T00:27:57.011Z,98393.94
2023-03-17T00:30:28.385Z,98384.38
2023-03-17T00:32:58.018Z,98382.38
2023-03-17T00:35:27.236Z,98384.38
2023-03-17T00:37:55.765Z,98390.47
2023-03-17T00:40:25.941Z,98391.94
2023-03-17T00:42:53.773Z,98386.91
2023-03-17T00:45:22.309Z,98382.50
2023-03-17T00:47:50.438Z,98390.00
2023-03-17T00:50:19.236Z,98389.00
2023-03-17T00:52:46.688Z,98390.72
2023-03-17T00:55:14.717Z,98389.00
2023-03-17T00:57:42.732Z,98390.16
2023-03-17T01:00:21.679Z,98381.72
2023-03-17T01:02:50.997Z,98392.50
2023-03-17T01:05:18.370Z,98384.28
2023-03-17T01:07:53.136Z,98382.84
2023-03-17T01:10:22.798Z,98383.75
2023-03-17T01:12:51.623Z,98381.84
2023-03-17T01:15:20.031Z,98386.75
2023-03-17T01:17:47.935Z,98377.44
2023-03-17T01:20:19.898Z,98375.78
2023-03-17T01:22:47.190Z,98376.91
2023-03-17T01:25:16.679Z,98371.16
2023-03-17T01:27:45.364Z,98376.88
2023-03-17T01:30:29.892Z,98375.34
2023-03-17T01:32:58.161Z,98364.88
2023-03-17T01:35:26.944Z,98368.81
2023-03-17T01:37:54.365Z,98373.09
2023-03-17T01:40:23.498Z,98372.97
2023-03-17T01:42:58.926Z,98369.28
2023-03-17T01:45:44.972Z,98369.16
2023-03-17T01:48:12.229Z,98368.72
2023-03-17T01:50:39.899Z,98369.16
2023-03-17T01:53:07.803Z,98365.63
2023-03-17T01:55:35.693Z,98370.16
2023-03-17T01:58:03.171Z,98370.00
2023-03-17T02:00:31.305Z,98376.00
2023-03-17T02:02:59.452Z,98373.78
2023-03-17T02:05:29.212Z,98372.63
2023-03-17T02:07:56.721Z,98374.97
2023-03-17T02:10:30.446Z,98373.56
2023-03-17T02:13:00.098Z,98367.88
2023-03-17T02:15:37.009Z,98357.03
2023-03-17T02:18:04.818Z,98358.63
2023-03-17T02:20:32.871Z,98354.78
2023-03-17T02:23:01.007Z,98358.31
2023-03-17T02:25:31.033Z,98349.31
2023-03-17T02:28:01.991Z,98348.22
2023-03-17T02:30:29.661Z,98362.13
2023-03-17T02:32:57.150Z,98363.88
2023-03-17T02:35:27.397Z,98360.28
2023-03-17T02:37:54.716Z,98372.16
2023-03-17T02:40:22.277Z,98371.50
2023-03-17T02:42:49.593Z,98372.63
2023-03-17T02:45:16.856Z,98374.56
2023-03-17T02:47:46.241Z,98375.94
2023-03-17T02:50:19.439Z,98360.88
2023-03-17T02:52:46.696Z,98355.25
2023-03-17T02:55:14.694Z,98362.50
2023-03-17T02:57:42.194Z,98358.50
2023-03-17T03:00:14.504Z,98365.47
2023-03-17T03:02:42.357Z,98353.19
2023-03-17T03:05:09.940Z,98349.94
2023-03-17T03:07:37.199Z,98362.72
2023-03-17T03:10:04.728Z,98354.13
2023-03-17T03:12:32.147Z,98351.50
2023-03-17T03:14:59.794Z,98345.47
2023-03-17T03:17:27.103Z,98350.50
2023-03-17T03:19:54.356Z,98351.19
2023-03-17T03:22:21.590Z,98349.41
2023-03-17T03:24:48.844Z,98350.72
2023-03-17T03:27:17.305Z,98342.03
2023-03-17T03:29:44.662Z,98344.66
2023-03-17T03:32:11.916Z,98347.25
2023-03-17T03:34:39.263Z,98347.47
2023-03-17T03:37:07.105Z,98347.38
2023-03-17T03:39:34.409Z,98349.16
2023-03-17T03:42:01.715Z,98339.50
2023-03-17T03:44:28.967Z,98345.09
2023-03-17T03:46:59.234Z,98345.09
2023-03-17T03:49:26.735Z,98338.00
2023-03-17T03:51:54.013Z,98342.31
2023-03-17T03:54:21.274Z,98344.38
2023-03-17T03:56:48.473Z,98353.53
2023-03-17T03:59:16.631Z,98340.59
2023-03-17T04:01:43.816Z,98351.88
2023-03-17T04:04:11.238Z,98354.06
2023-03-17T04:06:38.411Z,98347.47
2023-03-17T04:09:05.680Z,98348.28
2023-03-17T04:11:33.188Z,98343.41
2023-03-17T04:14:00.459Z,98351.84
2023-03-17T04:19:17.334Z,98356.69
2023-03-17T04:27:42.849Z,98357.97
2023-03-17T04:30:12.552Z,98352.50
2023-03-17T04:32:40.219Z,98354.59
2023-03-17T04:35:11.292Z,98353.47
2023-03-17T04:37:39.138Z,98358.66
2023-03-17T04:40:08.647Z,98354.06
2023-03-17T04:42:36.436Z,98355.25
2023-03-17T04:45:04.355Z,98347.78
2023-03-17T04:47:31.608Z,98349.94
2023-03-17T04:49:58.996Z,98358.63
2023-03-17T04:52:26.527Z,98352.38
2023-03-17T04:54:53.730Z,98352.88
2023-03-17T04:57:21.017Z,98351.97
2023-03-17T04:59:48.389Z,98345.03
2023-03-17T05:02:15.677Z,98345.50
2023-03-17T05:04:43.663Z,98341.69
2023-03-17T05:07:11.288Z,98336.44
2023-03-17T05:09:38.685Z,98336.78
2023-03-17T05:12:06.516Z,98334.41
2023-03-17T05:14:33.910Z,98338.44
2023-03-17T05:17:01.277Z,98328.44
2023-03-17T05:19:28.548Z,98327.00
2023-03-17T05:21:56.442Z,98314.34
2023-03-17T05:24:23.699Z,98316.66
2023-03-17T05:26:50.983Z,98310.94
2023-03-17T05:29:18.260Z,98302.09
2023-03-17T05:31:45.480Z,98309.94
2023-03-17T05:34:12.743Z,98303.84
2023-03-17T05:36:39.987Z,98299.72
2023-03-17T05:39:07.768Z,98297.59
2023-03-17T05:41:35.205Z,98296.25
2023-03-17T05:44:02.458Z,98300.16
2023-03-17T05:46:29.765Z,98291.44
2023-03-17T05:48:57.056Z,98298.06
2023-03-17T05:51:24.347Z,98289.75
2023-03-17T05:53:51.816Z,98285.56
2023-03-17T05:56:19.079Z,98287.72
2023-03-17T05:58:46.502Z,98293.41
2023-03-17T06:01:14.500Z,98287.97
2023-03-17T06:03:42.475Z,98281.34
2023-03-17T06:06:09.754Z,98272.28
2023-03-17T06:08:37.450Z,98277.84
2023-03-17T06:11:05.734Z,98274.66
2023-03-17T06:13:32.973Z,98271.06
2023-03-17T06:16:00.349Z,98276.25
2023-03-17T06:18:27.551Z,98265.25
2023-03-17T06:20:55.634Z,98265.44
2023-03-17T06:23:24.138Z,98264.16
2023-03-17T06:25:51.411Z,98265.91
2023-03-17T06:28:18.849Z,98256.91
2023-03-17T06:30:46.329Z,98256.66
2023-03-17T06:33:13.596Z,98257.28
2023-03-17T06:35:41.316Z,98258.59
2023-03-17T06:38:08.592Z,98257.59
2023-03-17T06:40:35.915Z,98257.09
2023-03-17T06:43:03.375Z,98256.88
2023-03-17T06:45:30.786Z,98253.22
2023-03-17T06:47:58.294Z,98255.34
2023-03-17T06:50:26.074Z,98246.22
2023-03-17T06:52:53.312Z,98248.38
2023-03-17T06:55:21.601Z,98241.56
2023-03-17T06:57:50.977Z,98235.22
2023-03-17T07:00:19.438Z,98234.97
2023-03-17T07:02:47.743Z,98229.34
2023-03-17T07:05:15.022Z,98229.47
2023-03-17T07:07:42.223Z,98227.66
2023-03-17T07:10:10.679Z,98230.53
2023-03-17T07:12:38.284Z,98227.53
2023-03-17T07:15:05.752Z,98224.56
2023-03-17T07:17:33.663Z,98214.97
2023-03-17T07:20:01.165Z,98215.75
2023-03-17T07:22:29.761Z,98215.94
2023-03-17T07:24:57.041Z,98213.66
2023-03-17T07:27:26.718Z,98212.16
2023-03-17T07:29:54.036Z,98204.84
2023-03-17T07:32:21.314Z,98201.38
2023-03-17T07:34:48.762Z,98213.44
2023-03-17T07:37:16.174Z,98204.91
2023-03-17T07:39:43.929Z,98204.91
2023-03-17T07:42:15.068Z,98201.44
2023-03-17T07:44:42.406Z,98201.06
2023-03-17T07:47:11.003Z,98206.13
2023-03-17T07:49:41.999Z,98205.38
2023-03-17T07:52:10.570Z,98207.34
2023-03-17T07:54:38.084Z,98202.31
2023-03-17T07:57:08.213Z,98193.00
2023-03-17T07:59:35.555Z,98194.94
2023-03-17T08:02:02.741Z,98195.72
2023-03-17T08:04:30.292Z,98195.72
2023-03-17T08:06:57.886Z,98191.81
2023-03-17T08:09:25.866Z,98184.41
2023-03-17T08:11:53.156Z,98181.28
2023-03-17T08:14:20.737Z,98184.34
2023-03-17T08:16:48.484Z,98180.44
2023-03-17T08:19:16.598Z,98180.84
2023-03-17T08:21:43.929Z,98178.84
2023-03-17T08:24:11.405Z,98178.44
2023-03-17T08:26:38.778Z,98180.72
2023-03-17T08:29:06.224Z,98168.63
2023-03-17T08:31:34.350Z,98173.69
2023-03-17T08:34:03.031Z,98166.69
2023-03-17T08:36:30.505Z,98165.06
2023-03-17T08:38:58.173Z,98163.47
2023-03-17T08:41:27.257Z,98164.19
2023-03-17T08:43:55.205Z,98167.28
2023-03-17T08:46:27.379Z,98163.38
2023-03-17T08:48:56.604Z,98165.28
2023-03-17T08:51:25.127Z,98156.63
2023-03-17T08:53:52.627Z,98159.31
2023-03-17T08:56:20.119Z,98153.38
2023-03-17T08:58:48.091Z,98146.25
2023-03-17T09:01:16.366Z,98157.88
2023-03-17T09:03:44.207Z,98145.72
2023-03-17T09:06:12.585Z,98152.75
2023-03-17T09:08:41.497Z,98145.66
2023-03-17T09:11:09.980Z,98142.16
2023-03-17T09:13:39.365Z,98147.88
2023-03-17T09:16:09.063Z,98147.09
2023-03-17T09:18:36.486Z,98151.72
2023-03-17T09:21:03.972Z,98139.69
2023-03-17T09:23:31.384Z,98142.66
2023-03-17T09:25:58.870Z,98137.44
2023-03-17T09:28:26.112Z,98138.19
2023-03-17T09:30:57.655Z,98140.00
2023-03-17T09:33:25.361Z,98140.75
2023-03-17T09:35:53.122Z,98141.47
2023-03-17T09:38:20.747Z,98142.63
2023-03-17T09:40:49.623Z,98139.81
2023-03-17T09:43:23.139Z,98148.41
2023-03-17T09:45:51.658Z,98133.09
2023-03-17T09:48:22.077Z,98140.84
2023-03-17T09:50:54.362Z,98130.63
2023-03-17T09:53:42.063Z,98130.94
2023-03-17T09:56:12.995Z,98136.28
2023-03-17T09:58:42.678Z,98137.81
2023-03-17T10:01:10.649Z,98136.97
2023-03-17T10:03:37.888Z,98127.59
2023-03-17T10:06:22.852Z,98121.75
2023-03-17T10:09:01.077Z,98131.47
2023-03-17T10:11:31.845Z,98138.13
2023-03-17T10:14:09.756Z,98125.56
2023-03-17T10:16:41.781Z,98127.59
2023-03-17T10:19:19.611Z,98126.34
2023-03-17T10:21:58.366Z,98125.16
2023-03-17T10:24:26.900Z,98120.06
2023-03-17T10:26:58.098Z,98132.50
2023-03-17T10:29:25.674Z,98125.47
2023-03-17T10:31:56.353Z,98132.94
2023-03-17T10:34:28.113Z,98126.41
2023-03-17T10:37:05.912Z,98132.66
2023-03-17T10:39:42.301Z,98124.81
2023-03-17T10:42:11.728Z,98126.75
2023-03-17T10:44:40.742Z,98126.09
2023-03-17T10:47:20.700Z,98129.97
2023-03-17T10:49:48.335Z,98133.94
2023-03-17T10:52:24.019Z,98132.41
2023-03-17T10:54:54.808Z,98129.69
2023-03-17T10:57:22.459Z,98130.09
2023-03-17T10:59:55.701Z,98123.19
2023-03-17T11:02:28.009Z,98113.19
2023-03-17T11:05:04.680Z,98118.31
2023-03-17T11:07:39.821Z,98116.34
2023-03-17T11:10:18.610Z,98127.00
2023-03-17T11:12:48.890Z,98116.47
2023-03-17T11:15:18.123Z,98113.00
2023-03-17T11:17:45.783Z,98116.19
2023-03-17T11:20:25.146Z,98109.59
2023-03-17T11:23:02.565Z,98111.53
2023-03-17T11:25:30.211Z,98115.41
2023-03-17T11:28:08.431Z,98103.41
2023-03-17T11:30:37.262Z,98104.66
2023-03-17T11:33:04.470Z,98106.63
2023-03-17T11:35:36.068Z,98101.09
2023-03-17T11:38:18.393Z,98096.88
2023-03-17T11:40:45.661Z,98098.50
2023-03-17T11:43:26.037Z,98101.63
2023-03-17T11:45:58.318Z,98092.75
2023-03-17T11:48:25.784Z,98093.16
2023-03-17T11:50:59.277Z,98091.50
2023-03-17T11:53:26.614Z,98084.53
2023-03-17T11:56:11.348Z,98090.00
2023-03-17T11:58:41.622Z,98077.84
2023-03-17T12:01:13.184Z,98091.16
2023-03-17T12:03:43.920Z,98097.03
2023-03-17T12:06:16.002Z,98086.56
2023-03-17T12:08:47.069Z,98084.25
2023-03-17T12:11:17.437Z,98083.47
2023-03-17T12:13:46.918Z,98073.78
2023-03-17T12:16:27.484Z,98080.84
2023-03-17T12:19:01.228Z,98082.78
2023-03-17T12:21:37.262Z,98077.63
2023-03-17T12:24:11.701Z,98080.47
2023-03-17T12:26:45.035Z,98074.63
2023-03-17T12:29:15.691Z,98080.09
2023-03-17T12:31:47.355Z,98066.16
2023-03-17T12:34:22.832Z,98072.41
2023-03-17T12:36:50.284Z,98077.91
2023-03-17T12:39:24.796Z,98077.16
2023-03-17T12:42:05.761Z,98070.56
2023-03-17T12:44:52.071Z,98064.38
2023-03-17T12:47:22.297Z,98069.88
2023-03-17T12:50:05.260Z,98069.06
2023-03-17T12:52:54.100Z,98074.13
2023-03-17T12:55:24.863Z,98075.03
2023-03-17T12:58:01.195Z,98067.25
2023-03-17T13:00:33.576Z,98064.19
2023-03-17T13:03:13.675Z,98065.00
2023-03-17T13:05:45.323Z,98070.94
2023-03-17T13:08:16.578Z,98065.88
2023-03-17T13:10:45.107Z,98070.59
2023-03-17T13:13:31.221Z,98067.09
2023-03-17T13:15:59.697Z,98058.59
2023-03-17T13:18:46.060Z,98058.66
2023-03-17T13:21:15.610Z,98065.72
2023-03-17T13:23:46.001Z,98057.19
2023-03-17T13:26:14.837Z,98066.53
2023-03-17T13:28:43.973Z,98061.44
2023-03-17T13:31:16.701Z,98060.69
2023-03-17T13:33:54.354Z,98055.28
2023-03-17T13:36:29.021Z,98060.38
2023-03-17T13:39:18.387Z,98051.47
2023-03-17T13:41:59.243Z,98060.84
2023-03-17T13:44:28.205Z,98059.31
2023-03-17T13:46:55.629Z,98054.72
2023-03-17T13:49:30.449Z,98054.75
2023-03-17T13:52:08.523Z,98048.94
2023-03-17T13:54:40.980Z,98059.03
2023-03-17T13:57:28.897Z,98050.91
2023-03-17T14:00:06.174Z,98062.19
2023-03-17T14:02:36.760Z,98054.41
2023-03-17T14:05:09.127Z,98057.16
2023-03-17T14:07:51.343Z,98059.13
2023-03-17T14:10:20.102Z,98059.56
2023-03-17T14:12:47.293Z,98058.03
2023-03-17T14:15:29.625Z,98053.72
2023-03-17T14:18:02.020Z,98059.59
2023-03-17T14:20:29.528Z,98051.03
2023-03-17T14:22:59.429Z,98049.47
2023-03-17T14:25:31.203Z,98056.09
2023-03-17T14:27:58.761Z,98052.56
2023-03-17T14:30:27.631Z,98049.88
2023-03-17T14:33:04.200Z,98051.81
2023-03-17T14:35:33.213Z,98046.75
2023-03-17T14:38:01.127Z,98040.91
2023-03-17T14:40:30.133Z,98054.91
2023-03-17T14:42:57.778Z,98040.97
2023-03-17T14:45:30.446Z,98047.94
2023-03-17T14:47:58.285Z,98046.00
2023-03-17T14:50:31.180Z,98044.09
2023-03-17T14:52:59.846Z,98037.06
2023-03-17T14:55:34.999Z,98042.53
2023-03-17T14:58:07.334Z,98046.00
2023-03-17T15:00:37.474Z,98044.47
2023-03-17T15:03:16.285Z,98035.13
2023-03-17T15:05:44.311Z,98048.72
2023-03-17T15:08:38.391Z,98039.44
2023-03-17T15:11:06.679Z,98037.09
2023-03-17T15:13:35.338Z,98030.09
2023-03-17T15:16:06.672Z,98040.19
2023-03-17T15:18:34.036Z,98041.75
2023-03-17T15:21:01.457Z,98038.66
2023-03-17T15:23:29.441Z,98039.00
2023-03-17T15:25:57.313Z,98032.78
2023-03-17T15:28:26.551Z,98044.06
2023-03-17T15:30:57.029Z,98031.25
2023-03-17T15:33:31.279Z,98021.53
2023-03-17T15:36:00.596Z,98028.13
2023-03-17T15:38:28.106Z,98022.69
2023-03-17T15:40:55.766Z,98027.34
2023-03-17T15:43:23.096Z,98020.75
2023-03-17T15:46:03.958Z,98030.03
2023-03-17T15:48:33.004Z,98017.63
2023-03-17T15:51:00.664Z,98016.44
2023-03-17T15:53:28.272Z,98019.19
2023-03-17T15:55:55.475Z,98014.13
2023-03-17T15:58:22.735Z,98009.88
2023-03-17T16:00:54.921Z,98014.91
2023-03-17T16:03:22.176Z,98016.06
2023-03-17T16:05:49.483Z,98006.78
2023-03-17T16:08:18.384Z,98001.69
2023-03-17T16:10:46.658Z,98008.69
2023-03-17T16:13:13.932Z,98007.91
2023-03-17T16:15:43.298Z,98005.19
2023-03-17T16:18:18.553Z,98002.84
2023-03-17T16:20:51.191Z,98000.50
2023-03-17T16:23:23.231Z,98002.81
2023-03-17T16:25:50.589Z,98003.97
2023-03-17T16:28:19.711Z,97998.13
2023-03-17T16:30:47.698Z,97989.97
2023-03-17T16:33:22.748Z,97993.41
2023-03-17T16:35:50.950Z,97994.59
2023-03-17T16:38:21.179Z,97991.91
2023-03-17T16:40:53.299Z,97991.13
2023-03-17T16:43:25.489Z,97994.97
2023-03-17T16:46:00.296Z,97988.34
2023-03-17T16:48:27.684Z,97982.53
2023-03-17T16:50:55.733Z,97981.69
2023-03-17T16:53:23.910Z,97980.53
2023-03-17T16:55:52.161Z,97980.53
2023-03-17T16:58:20.983Z,97987.53
2023-03-17T17:00:49.287Z,97970.09
2023-03-17T17:03:16.937Z,97980.97
2023-03-17T17:05:44.767Z,97975.91
2023-03-17T17:08:11.998Z,97972.38
2023-03-17T17:10:40.220Z,97975.88
2023-03-17T17:13:08.895Z,97979.28
2023-03-17T17:15:37.097Z,97983.97
2023-03-17T17:18:07.368Z,97970.38
2023-03-17T17:20:36.337Z,97973.09
2023-03-17T17:23:03.890Z,97975.38
2023-03-17T17:25:31.462Z,97965.28
2023-03-17T17:27:59.324Z,97970.69
2023-03-17T17:30:28.611Z,97966.00
2023-03-17T17:32:57.360Z,97968.28
2023-03-17T17:35:25.941Z,97962.44
2023-03-17T17:37:53.553Z,97964.34
2023-03-17T17:40:22.449Z,97953.84
2023-03-17T17:42:49.773Z,97956.84
2023-03-17T17:45:17.805Z,97950.22
2023-03-17T17:47:45.310Z,97944.78
2023-03-17T17:50:17.254Z,97934.31
2023-03-17T17:52:46.552Z,97938.06
2023-03-17T17:55:14.692Z,97932.94
2023-03-17T17:57:42.338Z,97934.75
2023-03-17T18:00:12.986Z,97932.22
2023-03-17T18:02:40.390Z,97937.19
2023-03-17T18:05:09.510Z,97935.81
2023-03-17T18:07:36.827Z,97929.50
2023-03-17T18:10:04.659Z,97923.44
2023-03-17T18:12:32.298Z,97931.81
2023-03-17T18:14:59.633Z,97929.38
2023-03-17T18:17:27.604Z,97929.19
2023-03-17T18:19:54.823Z,97914.84
2023-03-17T18:22:22.165Z,97923.22
2023-03-17T18:24:49.639Z,97915.44
2023-03-17T18:27:17.549Z,97906.28
2023-03-17T18:29:45.166Z,97899.28
2023-03-17T18:32:13.324Z,97909.53
2023-03-17T18:34:47.028Z,97901.84
2023-03-17T18:37:15.738Z,97893.25
2023-03-17T18:39:43.118Z,97885.94
2023-03-17T18:42:10.822Z,97884.22
2023-03-17T18:44:38.489Z,97888.50
2023-03-17T18:47:05.922Z,97884.59
2023-03-17T18:49:34.338Z,97884.72
2023-03-17T18:52:01.676Z,97880.84
2023-03-17T18:54:29.128Z,97883.50
2023-03-17T18:56:57.443Z,97877.63
2023-03-17T18:59:24.802Z,97875.31
2023-03-17T19:01:52.276Z,97879.06
2023-03-17T19:04:19.669Z,97882.03
2023-03-17T19:06:46.873Z,97879.69
2023-03-17T19:09:14.524Z,97880.09
2023-03-17T19:11:42.293Z,97873.88
2023-03-17T19:14:10.131Z,97881.94
2023-03-17T19:16:37.539Z,97879.94
2023-03-17T19:19:04.791Z,97871.00
2023-03-17T19:21:32.729Z,97867.91
2023-03-17T19:24:01.170Z,97867.91
2023-03-17T19:26:30.647Z,97866.66
2023-03-17T19:28:57.858Z,97861.00
2023-03-17T19:31:25.179Z,97861.09
2023-03-17T19:33:52.503Z,97856.66
2023-03-17T19:36:20.156Z,97855.47
2023-03-17T19:38:47.487Z,97854.81
2023-03-17T19:41:15.886Z,97849.88
2023-03-17T19:43:43.247Z,97841.06
2023-03-17T19:46:11.731Z,97843.81
2023-03-17T19:48:39.319Z,97847.25
2023-03-17T19:51:07.278Z,97840.34
2023-03-17T19:53:34.876Z,97833.81
2023-03-17T19:56:02.126Z,97830.66
2023-03-17T19:58:29.432Z,97833.81
2023-03-17T20:00:56.773Z,97827.50
2023-03-17T20:03:26.154Z,97833.56
2023-03-17T20:05:53.849Z,97828.44
2023-03-17T20:08:22.738Z,97827.53
2023-03-17T20:10:54.208Z,97828.97
2023-03-17T20:13:22.174Z,97823.50
2023-03-17T20:15:50.572Z,97819.59
2023-03-17T20:18:19.012Z,97808.31
2023-03-17T20:20:49.816Z,97811.00
2023-03-17T20:23:17.714Z,97807.38
2023-03-17T20:25:45.188Z,97806.53
2023-03-17T20:28:12.604Z,97805.69
2023-03-17T20:30:40.367Z,97803.66
2023-03-17T20:33:08.525Z,97804.41
2023-03-17T20:35:36.567Z,97798.19
2023-03-17T20:38:03.875Z,97796.25
2023-03-17T20:40:31.727Z,97799.19
2023-03-17T20:42:59.140Z,97793.31
2023-03-17T20:45:26.518Z,97787.94
2023-03-17T20:47:54.806Z,97779.78
2023-03-17T20:50:23.004Z,97783.19
2023-03-17T20:52:50.344Z,97789.72
2023-03-17T20:55:17.959Z,97777.31
2023-03-17T20:57:48.883Z,97778.81
2023-03-17T21:00:20.450Z,97781.13
2023-03-17T21:02:50.458Z,97777.22
2023-03-17T21:05:20.282Z,97777.59
2023-03-17T21:07:48.392Z,97778.31
2023-03-17T21:10:16.018Z,97784.72
2023-03-17T21:12:43.748Z,97783.53
2023-03-17T21:15:11.209Z,97780.75
2023-03-17T21:17:38.948Z,97773.81
2023-03-17T21:20:07.076Z,97761.88
2023-03-17T21:22:37.227Z,97751.88
2023-03-17T21:25:05.501Z,97755.00
2023-03-17T21:27:34.156Z,97741.38
2023-03-17T21:30:01.548Z,97749.06
2023-03-17T21:32:28.802Z,97742.53
2023-03-17T21:34:56.224Z,97747.50
2023-03-17T21:37:23.557Z,97744.81
2023-03-17T21:39:50.834Z,97739.41
2023-03-17T21:42:18.231Z,97746.38
2023-03-17T21:44:46.146Z,97744.38
2023-03-17T21:47:13.477Z,97731.63
2023-03-17T21:49:41.718Z,97735.13
2023-03-17T21:52:09.771Z,97730.84
2023-03-17T21:54:37.045Z,97715.81
2023-03-17T21:57:04.856Z,97714.59
2023-03-17T21:59:34.617Z,97711.50
2023-03-17T22:02:03.142Z,97706.78
2023-03-17T22:04:30.288Z,97704.47
2023-03-17T22:06:59.167Z,97706.84
2023-03-17T22:09:26.477Z,97704.91
2023-03-17T22:11:53.733Z,97704.91
2023-03-17T22:14:21.056Z,97712.22
2023-03-17T22:16:49.091Z,97698.19
2023-03-17T22:19:18.183Z,97697.06
2023-03-17T22:21:46.577Z,97700.91
2023-03-17T22:24:13.859Z,97692.81
2023-03-17T22:26:41.376Z,97700.53
2023-03-17T22:29:08.686Z,97699.69
2023-03-17T22:31:36.536Z,97695.75
2023-03-17T22:34:04.514Z,97701.56
2023-03-17T22:36:32.182Z,97687.34
2023-03-17T22:39:00.134Z,97685.09
2023-03-17T22:41:28.772Z,97692.03
2023-03-17T22:43:56.353Z,97675.81
2023-03-17T22:46:24.228Z,97682.03
2023-03-17T22:48:52.144Z,97678.25
2023-03-17T22:51:21.118Z,97675.19
2023-03-17T22:53:48.709Z,97676.75
2023-03-17T22:56:16.785Z,97673.31
2023-03-17T22:58:45.028Z,97660.56
2023-03-17T23:01:13.847Z,97666.44
2023-03-17T23:03:41.399Z,97666.03
2023-03-17T23:06:08.926Z,97666.03
2023-03-17T23:08:38.669Z,97661.34
2023-03-17T23:11:08.061Z,97652.84
2023-03-17T23:13:35.919Z,97649.69
2023-03-17T23:16:04.979Z,97646.91
2023-03-17T23:18:32.601Z,97649.56
2023-03-17T23:21:00.395Z,97642.63
2023-03-17T23:23:27.691Z,97645.66
2023-03-17T23:25:55.044Z,97651.47
2023-03-17T23:28:22.404Z,97645.66
2023-03-17T23:30:49.767Z,97649.44
2023-03-17T23:33:21.451Z,97649.00
2023-03-17T23:35:50.756Z,97642.03
2023-03-17T23:38:19.750Z,97644.41
2023-03-17T23:40:47.521Z,97640.56
2023-03-17T23:43:15.107Z,97643.63
2023-03-17T23:45:42.475Z,97643.63
2023-03-17T23:48:10.785Z,97639.06
2023-03-17T23:50:39.663Z,97640.56
2023-03-17T23:53:06.915Z,97643.25
2023-03-17T23:55:34.301Z,97637.50
2023-03-17T23:58:04.221Z,97638.66
